Terminal Aerodrome Forecast
Issued by NWS

Home | Current Version | Previous Version | Text Only | Print | Product List | Glossary On
Versions: 1 2 3 4 5 6 7 8 9 10
776
FTPA31 PHFO 251736
TAFHTO
TAF
PHTO 251736Z 2518/2618 23005KT P6SM SCT025 BKN045
     FM252000 10010KT P6SM SCT030 SCT050
     FM260500 23005KT P6SM VCSH SCT025 BKN040=

USA.gov is the U.S. government's official web portal to all federal, state and local government web resources and services.